createdAt,value
2023-10-11T00:00:38.780Z,87.28
2023-10-11T00:03:28.225Z,87.48
2023-10-11T00:05:51.710Z,87.66
2023-10-11T00:08:20.264Z,87.43
2023-10-11T00:10:50.990Z,87.28
2023-10-11T00:13:18.219Z,86.95
2023-10-11T00:15:40.758Z,86.54
2023-10-11T00:18:04.060Z,86.28
2023-10-11T00:20:41.575Z,85.95
2023-10-11T00:23:04.491Z,86.09
2023-10-11T00:25:27.813Z,86.21
2023-10-11T00:27:51.894Z,85.95
2023-10-11T00:30:19.080Z,85.58
2023-10-11T00:32:42.203Z,85.62
2023-10-11T00:35:05.478Z,85.65
2023-10-11T00:37:28.504Z,85.11
2023-10-11T00:39:55.239Z,85.07
2023-10-11T00:42:18.269Z,85.06
2023-10-11T00:44:43.924Z,85.40
2023-10-11T00:47:09.243Z,85.64
2023-10-11T00:49:41.290Z,85.90
2023-10-11T00:52:06.017Z,86.06
2023-10-11T00:54:28.818Z,86.37
2023-10-11T00:56:53.120Z,87.11
2023-10-11T00:59:17.947Z,87.25
2023-10-11T01:01:44.186Z,87.43
2023-10-11T01:04:08.407Z,87.70
2023-10-11T01:06:31.306Z,87.92
2023-10-11T01:08:54.651Z,88.25
2023-10-11T01:11:17.394Z,88.65
2023-10-11T01:13:41.639Z,88.96
2023-10-11T01:16:07.394Z,89.00
2023-10-11T01:18:30.156Z,89.13
2023-10-11T01:20:52.989Z,89.02
2023-10-11T01:23:16.500Z,88.85
2023-10-11T01:25:39.147Z,88.82
2023-10-11T01:28:02.336Z,88.44
2023-10-11T01:30:28.369Z,88.01
2023-10-11T01:32:55.856Z,87.77
2023-10-11T01:35:21.694Z,87.73
2023-10-11T01:37:45.186Z,87.75
2023-10-11T01:40:09.837Z,87.96
2023-10-11T01:42:34.944Z,87.98
2023-10-11T01:44:57.748Z,87.65
2023-10-11T01:47:20.641Z,87.35
2023-10-11T01:49:43.487Z,87.19
2023-10-11T01:52:08.098Z,86.78
2023-10-11T01:54:30.764Z,86.72
2023-10-11T01:56:58.515Z,86.38
2023-10-11T01:59:21.274Z,86.69
2023-10-11T02:01:44.681Z,86.87
2023-10-11T02:04:21.389Z,86.93
2023-10-11T02:06:45.430Z,87.01
2023-10-11T02:09:10.044Z,87.16
2023-10-11T02:11:32.700Z,87.18
2023-10-11T02:13:55.887Z,87.39
2023-10-11T02:16:18.691Z,88.08
2023-10-11T02:18:42.230Z,88.57
2023-10-11T02:21:08.166Z,88.50
2023-10-11T02:23:38.709Z,88.44
2023-10-11T02:26:02.011Z,88.60
2023-10-11T02:28:24.604Z,88.54
2023-10-11T02:30:50.970Z,88.25
2023-10-11T02:33:13.733Z,88.10
2023-10-11T02:35:50.924Z,88.18
2023-10-11T02:38:19.853Z,88.75
2023-10-11T02:40:42.542Z,88.66
2023-10-11T02:43:07.107Z,88.36
2023-10-11T02:45:33.670Z,88.64
2023-10-11T02:48:03.747Z,88.63
2023-10-11T02:50:27.040Z,88.35
2023-10-11T02:52:50.162Z,88.46
2023-10-11T02:55:23.271Z,88.23
2023-10-11T02:57:46.015Z,88.34
2023-10-11T03:00:22.931Z,88.23
2023-10-11T03:02:55.691Z,88.00
2023-10-11T03:05:22.099Z,88.99
2023-10-11T03:07:46.519Z,88.41
2023-10-11T03:10:15.257Z,88.30
2023-10-11T03:12:40.422Z,88.31
2023-10-11T03:15:13.661Z,88.03
2023-10-11T03:17:43.606Z,87.86
2023-10-11T03:20:25.450Z,87.79
2023-10-11T03:22:52.487Z,87.77
2023-10-11T03:25:19.961Z,87.92
2023-10-11T03:27:50.606Z,88.08
2023-10-11T03:30:15.633Z,88.37
2023-10-11T03:32:39.674Z,88.31
2023-10-11T03:35:02.286Z,87.79
2023-10-11T03:37:29.413Z,87.77
2023-10-11T03:39:58.577Z,87.83
2023-10-11T03:42:21.927Z,88.22
2023-10-11T03:44:48.465Z,88.63
2023-10-11T03:47:15.601Z,88.60
2023-10-11T03:49:44.613Z,88.18
2023-10-11T03:52:17.425Z,87.67
2023-10-11T03:54:43.257Z,88.35
2023-10-11T03:57:06.948Z,88.65
2023-10-11T03:59:30.212Z,89.39
2023-10-11T04:01:56.340Z,89.26
2023-10-11T04:04:22.486Z,89.29
2023-10-11T04:06:52.566Z,89.57
2023-10-11T04:09:33.197Z,89.59
2023-10-11T04:11:56.657Z,90.02
2023-10-11T04:14:25.435Z,90.17
2023-10-11T04:16:48.343Z,90.37
2023-10-11T04:19:11.189Z,90.55
2023-10-11T04:21:54.022Z,90.85
2023-10-11T04:24:21.112Z,91.18
2023-10-11T04:26:45.657Z,91.50
2023-10-11T04:29:16.560Z,91.96
2023-10-11T04:31:59.625Z,92.30
2023-10-11T04:34:25.661Z,92.15
2023-10-11T04:36:50.349Z,92.04
2023-10-11T04:39:28.949Z,91.82
2023-10-11T04:41:53.171Z,91.81
2023-10-11T04:44:18.338Z,91.58
2023-10-11T04:46:45.925Z,91.49
2023-10-11T04:49:20.755Z,91.13
2023-10-11T04:51:46.540Z,91.15
2023-10-11T04:54:15.069Z,90.63
2023-10-11T04:56:44.628Z,90.61
2023-10-11T04:59:07.994Z,90.44
2023-10-11T05:01:46.936Z,90.53
2023-10-11T05:04:14.165Z,91.17
2023-10-11T05:06:42.227Z,91.76
2023-10-11T05:09:15.069Z,91.99
2023-10-11T05:11:40.414Z,91.46
2023-10-11T05:14:23.242Z,91.07
2023-10-11T05:16:46.442Z,90.88
2023-10-11T05:19:09.100Z,91.17
2023-10-11T05:21:40.110Z,91.50
2023-10-11T05:24:16.216Z,91.57
2023-10-11T05:26:43.340Z,91.99
2023-10-11T05:29:25.253Z,92.12
2023-10-11T05:32:07.962Z,92.53
2023-10-11T05:34:47.211Z,92.28
2023-10-11T05:37:30.317Z,92.38
2023-10-11T05:40:12.143Z,92.46
2023-10-11T05:42:53.704Z,92.48
2023-10-11T05:45:35.308Z,92.82
2023-10-11T05:48:16.501Z,92.86
2023-10-11T05:50:52.028Z,92.54
2023-10-11T05:53:16.098Z,92.43
2023-10-11T05:55:39.128Z,92.57
2023-10-11T05:58:05.752Z,92.64
2023-10-11T06:00:28.542Z,92.50
2023-10-11T06:02:53.497Z,92.56
2023-10-11T06:05:16.497Z,92.80
2023-10-11T06:07:39.747Z,93.01
2023-10-11T06:10:07.812Z,92.85
2023-10-11T06:12:34.926Z,92.40
2023-10-11T06:14:58.711Z,91.62
2023-10-11T06:17:34.449Z,91.47
2023-10-11T06:19:57.669Z,91.44
2023-10-11T06:22:23.663Z,91.36
2023-10-11T06:24:47.384Z,91.78
2023-10-11T06:27:32.708Z,91.25
2023-10-11T06:29:55.584Z,91.32
2023-10-11T06:32:21.464Z,91.23
2023-10-11T06:34:46.581Z,91.70
2023-10-11T06:37:09.430Z,91.84
2023-10-11T06:39:35.587Z,91.90
2023-10-11T06:41:58.624Z,92.05
2023-10-11T06:44:23.895Z,92.29
2023-10-11T06:46:49.229Z,92.25
2023-10-11T06:49:15.440Z,92.71
2023-10-11T06:51:38.248Z,92.94
2023-10-11T06:54:01.323Z,92.99
2023-10-11T06:56:24.992Z,92.87
2023-10-11T06:58:47.777Z,92.76
2023-10-11T07:01:11.904Z,92.25
2023-10-11T07:03:40.291Z,92.05
2023-10-11T07:06:12.568Z,91.67
2023-10-11T07:08:37.035Z,90.74
2023-10-11T07:11:19.273Z,90.05
2023-10-11T07:13:51.146Z,89.78
2023-10-11T07:16:14.136Z,89.61
2023-10-11T07:18:41.257Z,89.85
2023-10-11T07:21:08.928Z,89.69
2023-10-11T07:23:58.426Z,89.66
2023-10-11T07:26:31.728Z,90.16
2023-10-11T07:28:54.676Z,89.91
2023-10-11T07:31:18.947Z,90.05
2023-10-11T07:33:41.879Z,89.88
2023-10-11T07:36:04.882Z,89.06
2023-10-11T07:38:34.765Z,88.92
2023-10-11T07:40:58.607Z,88.39
2023-10-11T07:43:21.835Z,87.89
2023-10-11T07:45:51.673Z,87.95
2023-10-11T07:48:18.799Z,88.14
2023-10-11T07:50:43.856Z,87.62
2023-10-11T07:53:06.879Z,86.82
2023-10-11T07:55:29.770Z,87.23
2023-10-11T07:57:52.604Z,87.11
2023-10-11T08:00:20.523Z,87.72
2023-10-11T08:02:43.983Z,88.14
2023-10-11T08:05:07.774Z,88.41
2023-10-11T08:07:30.553Z,88.64
2023-10-11T08:10:11.672Z,89.12
2023-10-11T08:12:39.764Z,88.38
2023-10-11T08:15:05.990Z,87.86
2023-10-11T08:18:11.021Z,86.59
2023-10-11T08:20:35.060Z,85.51
2023-10-11T08:22:58.598Z,84.93
2023-10-11T08:25:27.185Z,84.58
2023-10-11T08:28:05.999Z,85.27
2023-10-11T08:30:30.521Z,85.54
2023-10-11T08:32:53.523Z,85.24
2023-10-11T08:35:34.490Z,84.78
2023-10-11T08:38:03.409Z,83.78
2023-10-11T08:40:30.958Z,82.80
2023-10-11T08:42:54.212Z,83.15
2023-10-11T08:45:35.146Z,83.43
2023-10-11T08:47:59.122Z,83.96
2023-10-11T08:50:22.700Z,85.07
2023-10-11T08:52:46.085Z,84.76
2023-10-11T08:55:13.753Z,84.43
2023-10-11T08:57:37.725Z,84.45
2023-10-11T09:00:00.644Z,84.75
2023-10-11T09:02:35.257Z,84.63
2023-10-11T09:05:07.906Z,84.27
2023-10-11T09:07:46.616Z,84.62
2023-10-11T09:10:24.647Z,84.56
2023-10-11T09:13:02.688Z,83.56
2023-10-11T09:15:46.201Z,83.50
2023-10-11T09:18:23.295Z,83.18
2023-10-11T09:20:57.195Z,82.79
2023-10-11T09:23:23.115Z,83.05
2023-10-11T09:25:58.713Z,82.52
2023-10-11T09:28:23.382Z,81.19
2023-10-11T09:30:46.250Z,81.29
2023-10-11T09:33:19.284Z,80.83
2023-10-11T09:35:42.327Z,80.87
2023-10-11T09:38:07.567Z,80.86
2023-10-11T09:40:35.368Z,80.22
2023-10-11T09:43:02.867Z,79.75
2023-10-11T09:45:31.258Z,79.52
2023-10-11T09:47:57.115Z,78.54
2023-10-11T09:50:24.550Z,78.07
2023-10-11T09:52:50.113Z,77.52
2023-10-11T09:55:19.075Z,76.93
2023-10-11T09:57:54.615Z,77.18
2023-10-11T10:00:42.296Z,76.65
2023-10-11T10:03:06.933Z,76.15
2023-10-11T10:06:08.579Z,75.95
2023-10-11T10:08:32.062Z,75.87
2023-10-11T10:10:55.499Z,75.81
2023-10-11T10:13:18.212Z,75.87
2023-10-11T10:15:58.650Z,75.10
2023-10-11T10:18:23.012Z,74.80
2023-10-11T10:20:47.817Z,74.65
2023-10-11T10:23:17.200Z,74.53
2023-10-11T10:25:41.905Z,73.03
2023-10-11T10:28:04.686Z,72.52
2023-10-11T10:30:29.494Z,72.25
2023-10-11T10:33:22.634Z,71.97
2023-10-11T10:35:46.173Z,71.58
2023-10-11T10:38:11.084Z,70.62
2023-10-11T10:40:38.605Z,70.09
2023-10-11T10:43:12.413Z,69.67
2023-10-11T10:45:35.820Z,69.94
2023-10-11T10:48:16.893Z,69.71
2023-10-11T10:51:03.045Z,69.06
2023-10-11T10:53:41.243Z,68.86
2023-10-11T10:56:04.614Z,69.30
2023-10-11T10:58:29.053Z,69.05
2023-10-11T11:00:55.531Z,68.91
2023-10-11T11:03:23.524Z,68.49
2023-10-11T11:05:57.393Z,68.25
2023-10-11T11:08:25.983Z,67.94
2023-10-11T11:10:57.739Z,67.99
2023-10-11T11:13:20.590Z,67.76
2023-10-11T11:15:45.632Z,67.41
2023-10-11T11:18:14.771Z,67.53
2023-10-11T11:20:42.052Z,66.82
2023-10-11T11:23:06.335Z,67.28
2023-10-11T11:25:29.377Z,66.28
2023-10-11T11:28:21.900Z,65.87
2023-10-11T11:31:15.252Z,66.60
2023-10-11T11:33:49.161Z,64.66
2023-10-11T11:36:36.452Z,64.72
2023-10-11T11:39:18.349Z,64.74
2023-10-11T11:41:41.151Z,64.97
2023-10-11T11:44:05.005Z,63.55
2023-10-11T11:46:30.711Z,60.66
2023-10-11T11:48:53.598Z,61.96
2023-10-11T11:51:16.437Z,58.94
2023-10-11T11:53:39.576Z,59.17
2023-10-11T11:56:02.366Z,58.64
2023-10-11T11:58:25.164Z,57.85
2023-10-11T12:01:03.488Z,58.38
2023-10-11T12:03:26.684Z,57.22
2023-10-11T12:05:49.742Z,57.09
2023-10-11T12:08:20.351Z,57.34
2023-10-11T12:10:48.996Z,55.74
2023-10-11T12:13:11.915Z,55.14
2023-10-11T12:15:35.453Z,56.50
2023-10-11T12:17:58.267Z,58.55
2023-10-11T12:20:23.478Z,59.11
2023-10-11T12:22:46.605Z,58.67
2023-10-11T12:25:13.220Z,59.30
2023-10-11T12:27:41.342Z,58.94
2023-10-11T12:30:10.875Z,59.01
2023-10-11T12:32:34.967Z,58.16
2023-10-11T12:34:57.993Z,60.06
2023-10-11T12:37:20.931Z,59.24
2023-10-11T12:39:43.695Z,58.98
2023-10-11T12:42:07.201Z,57.98
2023-10-11T12:44:29.936Z,57.02
2023-10-11T12:46:53.313Z,56.26
2023-10-11T12:49:19.348Z,56.70
2023-10-11T12:51:46.136Z,57.20
2023-10-11T12:54:16.274Z,57.18
2023-10-11T12:56:39.673Z,57.04
2023-10-11T12:59:02.314Z,57.40
2023-10-11T13:01:38.206Z,56.88
2023-10-11T13:04:07.700Z,57.12
2023-10-11T13:06:30.638Z,58.11
2023-10-11T13:08:53.457Z,57.41
2023-10-11T13:11:19.910Z,57.16
2023-10-11T13:13:45.061Z,57.61
2023-10-11T13:16:09.069Z,58.09
2023-10-11T13:18:42.147Z,58.29
2023-10-11T13:21:06.777Z,57.15
2023-10-11T13:23:32.710Z,57.19
2023-10-11T13:25:56.988Z,57.72
2023-10-11T13:28:19.547Z,58.09
2023-10-11T13:30:42.483Z,58.43
2023-10-11T13:33:11.013Z,59.21
2023-10-11T13:35:36.885Z,58.54
2023-10-11T13:37:59.642Z,58.99
2023-10-11T13:40:27.130Z,59.27
2023-10-11T13:42:52.279Z,59.62
2023-10-11T13:45:18.054Z,60.01
2023-10-11T13:47:40.843Z,60.40
2023-10-11T13:50:09.935Z,60.13
2023-10-11T13:52:37.483Z,59.93
2023-10-11T13:55:02.080Z,60.59
2023-10-11T13:57:24.967Z,60.56
2023-10-11T13:59:49.149Z,60.54
2023-10-11T14:02:17.877Z,60.61
2023-10-11T14:04:50.870Z,60.00
2023-10-11T14:07:34.431Z,60.21
2023-10-11T14:09:58.655Z,60.42
2023-10-11T14:12:30.892Z,60.58
2023-10-11T14:14:54.469Z,60.71
2023-10-11T14:17:17.153Z,60.85
2023-10-11T14:19:40.052Z,60.11
2023-10-11T14:22:06.339Z,60.74
2023-10-11T14:24:29.191Z,60.78
2023-10-11T14:26:51.774Z,60.79
2023-10-11T14:29:14.467Z,61.04
2023-10-11T14:31:37.191Z,61.25
2023-10-11T14:34:01.746Z,61.01
2023-10-11T14:36:24.885Z,61.01
2023-10-11T14:38:48.120Z,61.42
2023-10-11T14:41:11.567Z,61.82
2023-10-11T14:43:35.623Z,61.43
2023-10-11T14:45:58.511Z,61.52
2023-10-11T14:48:21.752Z,61.99
2023-10-11T14:50:44.562Z,62.01
2023-10-11T14:53:07.391Z,62.60
2023-10-11T14:55:30.841Z,62.44
2023-10-11T14:57:54.911Z,62.78
2023-10-11T15:00:25.206Z,63.16
2023-10-11T15:02:47.915Z,63.41
2023-10-11T15:05:10.709Z,63.22
2023-10-11T15:07:33.449Z,63.40
2023-10-11T15:09:56.141Z,63.58
2023-10-11T15:12:19.332Z,63.82
2023-10-11T15:14:42.321Z,64.36
2023-10-11T15:17:04.964Z,64.40
2023-10-11T15:19:27.575Z,65.03
2023-10-11T15:21:50.591Z,65.31
2023-10-11T15:24:15.100Z,65.51
2023-10-11T15:26:38.053Z,65.93
2023-10-11T15:29:01.362Z,66.25
2023-10-11T15:31:24.116Z,66.79
2023-10-11T15:33:47.000Z,66.51
2023-10-11T15:36:10.153Z,67.07
2023-10-11T15:38:34.006Z,67.39
2023-10-11T15:41:06.821Z,67.55
2023-10-11T15:43:37.882Z,68.30
2023-10-11T15:46:02.234Z,68.27
2023-10-11T15:48:25.350Z,68.03
2023-10-11T15:50:48.226Z,68.07
2023-10-11T15:53:14.410Z,68.07
2023-10-11T15:55:42.197Z,67.92
2023-10-11T15:58:05.018Z,68.17
2023-10-11T16:00:30.932Z,68.40
2023-10-11T16:02:53.751Z,68.70
2023-10-11T16:05:17.168Z,69.16
2023-10-11T16:07:40.189Z,69.14
2023-10-11T16:10:02.852Z,69.62
2023-10-11T16:12:25.800Z,69.95
2023-10-11T16:14:49.410Z,69.95
2023-10-11T16:17:12.180Z,70.43
2023-10-11T16:19:35.242Z,70.32
2023-10-11T16:21:59.618Z,70.51
2023-10-11T16:24:24.751Z,70.82
2023-10-11T16:26:50.976Z,70.78
2023-10-11T16:29:13.591Z,71.02
2023-10-11T16:31:38.374Z,71.13
2023-10-11T16:34:01.783Z,71.46
2023-10-11T16:36:26.110Z,71.56
2023-10-11T16:38:49.034Z,71.71
2023-10-11T16:41:11.674Z,71.69
2023-10-11T16:43:40.210Z,71.43
2023-10-11T16:46:08.003Z,71.29
2023-10-11T16:48:33.960Z,71.27
2023-10-11T16:50:58.762Z,71.22
2023-10-11T16:53:21.422Z,71.29
2023-10-11T16:55:44.122Z,71.97
2023-10-11T16:58:06.761Z,72.05
2023-10-11T17:00:33.984Z,72.34
2023-10-11T17:02:56.905Z,72.39
2023-10-11T17:05:19.899Z,72.28
2023-10-11T17:07:42.931Z,72.50
2023-10-11T17:10:07.704Z,72.59
2023-10-11T17:12:30.529Z,72.36
2023-10-11T17:14:53.192Z,72.55
2023-10-11T17:17:16.732Z,72.65
2023-10-11T17:19:39.522Z,72.79
2023-10-11T17:22:02.310Z,72.90
2023-10-11T17:24:25.363Z,73.67
2023-10-11T17:26:48.367Z,74.08
2023-10-11T17:29:11.446Z,73.75
2023-10-11T17:31:34.712Z,73.92
2023-10-11T17:33:57.458Z,73.88
2023-10-11T17:36:22.645Z,74.08
2023-10-11T17:38:46.099Z,75.14
2023-10-11T17:41:13.400Z,75.00
2023-10-11T17:43:56.979Z,75.60
2023-10-11T17:46:19.883Z,75.67
2023-10-11T17:48:42.775Z,75.75
2023-10-11T17:51:09.067Z,75.74
2023-10-11T17:53:32.429Z,75.67
2023-10-11T17:55:55.581Z,75.46
2023-10-11T17:58:21.300Z,75.27
2023-10-11T18:00:45.470Z,75.14
2023-10-11T18:03:10.641Z,75.48
2023-10-11T18:05:38.774Z,75.44
2023-10-11T18:08:01.621Z,75.52
2023-10-11T18:10:24.355Z,75.84
2023-10-11T18:12:49.158Z,76.48
2023-10-11T18:15:12.726Z,76.86
2023-10-11T18:17:40.800Z,77.11
2023-10-11T18:20:08.579Z,76.79
2023-10-11T18:22:31.882Z,76.97
2023-10-11T18:24:56.890Z,77.16
2023-10-11T18:27:21.898Z,77.18
2023-10-11T18:29:44.903Z,77.34
2023-10-11T18:32:10.381Z,77.43
2023-10-11T18:34:33.638Z,78.12
2023-10-11T18:36:56.297Z,78.76
2023-10-11T18:39:20.033Z,79.40
2023-10-11T18:41:43.476Z,79.47
2023-10-11T18:44:06.639Z,80.27
2023-10-11T18:46:29.837Z,80.60
2023-10-11T18:48:53.026Z,80.79
2023-10-11T18:51:20.576Z,81.03
2023-10-11T18:53:46.737Z,81.14
2023-10-11T18:56:10.306Z,80.97
2023-10-11T18:59:14.457Z,80.81
2023-10-11T19:01:37.521Z,80.14
2023-10-11T19:04:02.453Z,79.83
2023-10-11T19:06:27.422Z,79.97
2023-10-11T19:08:53.006Z,80.13
2023-10-11T19:11:17.544Z,80.19
2023-10-11T19:13:41.380Z,80.19
2023-10-11T19:16:17.468Z,80.38
2023-10-11T19:18:48.104Z,80.27
2023-10-11T19:21:11.643Z,80.33
2023-10-11T19:23:38.296Z,80.81
2023-10-11T19:26:01.979Z,80.61
2023-10-11T19:28:25.140Z,80.76
2023-10-11T19:30:49.025Z,80.97
2023-10-11T19:33:13.976Z,81.05
2023-10-11T19:35:37.131Z,81.30
2023-10-11T19:38:02.848Z,81.47
2023-10-11T19:40:26.497Z,81.70
2023-10-11T19:42:50.889Z,81.51
2023-10-11T19:45:17.592Z,81.59
2023-10-11T19:47:44.199Z,81.75
2023-10-11T19:50:08.505Z,81.88
2023-10-11T19:52:31.217Z,82.08
2023-10-11T19:54:54.003Z,82.88
2023-10-11T19:57:16.622Z,83.10
2023-10-11T19:59:39.254Z,82.47
2023-10-11T20:02:02.579Z,82.69
2023-10-11T20:04:25.182Z,82.40
2023-10-11T20:06:47.985Z,82.17
2023-10-11T20:09:10.708Z,82.21
2023-10-11T20:11:34.665Z,82.26
2023-10-11T20:13:57.318Z,82.21
2023-10-11T20:16:20.071Z,82.43
2023-10-11T20:18:45.651Z,82.68
2023-10-11T20:21:09.575Z,82.78
2023-10-11T20:23:32.233Z,82.82
2023-10-11T20:25:54.937Z,82.83
2023-10-11T20:28:17.646Z,82.77
2023-10-11T20:30:42.265Z,82.79
2023-10-11T20:33:25.666Z,82.64
2023-10-11T20:36:12.482Z,82.66
2023-10-11T20:38:55.263Z,83.00
2023-10-11T20:41:37.831Z,83.31
2023-10-11T20:44:20.549Z,83.51
2023-10-11T20:46:43.768Z,83.90
2023-10-11T20:49:08.663Z,84.83
2023-10-11T20:51:31.584Z,85.36
2023-10-11T20:53:56.058Z,85.23
2023-10-11T20:56:18.867Z,84.60
2023-10-11T20:58:56.275Z,84.26
2023-10-11T21:01:19.293Z,84.28
2023-10-11T21:03:42.110Z,84.24
2023-10-11T21:06:10.305Z,84.59
2023-10-11T21:08:33.166Z,84.69
2023-10-11T21:10:55.872Z,84.76
2023-10-11T21:13:23.561Z,84.86
2023-10-11T21:15:50.137Z,84.99
2023-10-11T21:18:13.320Z,84.89
2023-10-11T21:20:45.819Z,84.96
2023-10-11T21:23:11.041Z,85.07
2023-10-11T21:25:38.017Z,84.78
2023-10-11T21:28:00.770Z,84.62
2023-10-11T21:30:23.775Z,84.49
2023-10-11T21:32:50.684Z,85.12
2023-10-11T21:35:18.261Z,85.36
2023-10-11T21:37:42.371Z,85.42
2023-10-11T21:40:07.769Z,85.53
2023-10-11T21:42:30.714Z,85.41
2023-10-11T21:44:53.377Z,85.51
2023-10-11T21:47:16.047Z,85.43
2023-10-11T21:49:38.732Z,85.44
2023-10-11T21:52:01.470Z,85.60
2023-10-11T21:54:24.408Z,85.76
2023-10-11T21:56:50.437Z,85.68
2023-10-11T21:59:16.080Z,85.70
2023-10-11T22:01:39.174Z,85.53
2023-10-11T22:04:01.905Z,85.36
2023-10-11T22:06:25.145Z,85.72
2023-10-11T22:08:51.919Z,85.55
2023-10-11T22:11:17.933Z,85.46
2023-10-11T22:13:40.530Z,85.33
2023-10-11T22:16:03.811Z,85.53
2023-10-11T22:18:30.796Z,85.49
2023-10-11T22:20:53.786Z,85.84
2023-10-11T22:23:18.717Z,86.71
2023-10-11T22:25:42.752Z,87.66
2023-10-11T22:28:08.431Z,87.60
2023-10-11T22:30:31.199Z,87.27
2023-10-11T22:32:55.281Z,87.29
2023-10-11T22:35:18.162Z,87.83
2023-10-11T22:37:41.415Z,88.00
2023-10-11T22:40:04.441Z,88.09
2023-10-11T22:42:27.170Z,88.09
2023-10-11T22:44:51.879Z,88.96
2023-10-11T22:47:14.946Z,88.85
2023-10-11T22:49:37.736Z,88.45
2023-10-11T22:52:00.346Z,88.46
2023-10-11T22:54:23.026Z,88.41
2023-10-11T22:56:45.952Z,87.96
2023-10-11T22:59:08.698Z,87.88
2023-10-11T23:01:31.324Z,87.61
2023-10-11T23:03:54.475Z,87.04
2023-10-11T23:06:17.374Z,87.17
2023-10-11T23:08:41.310Z,87.36
2023-10-11T23:11:17.432Z,87.26
2023-10-11T23:13:40.085Z,86.86
2023-10-11T23:16:07.598Z,86.73
2023-10-11T23:18:31.382Z,86.92
2023-10-11T23:21:02.043Z,86.43
2023-10-11T23:23:42.316Z,85.99
2023-10-11T23:26:08.343Z,86.13
2023-10-11T23:28:31.041Z,86.10
2023-10-11T23:30:56.553Z,86.34
2023-10-11T23:33:20.001Z,86.43
2023-10-11T23:35:46.776Z,86.68
2023-10-11T23:38:27.478Z,86.62
2023-10-11T23:40:55.828Z,86.76
2023-10-11T23:43:18.739Z,87.66
2023-10-11T23:45:51.877Z,88.40
2023-10-11T23:48:14.844Z,88.70
2023-10-11T23:50:38.784Z,88.63
2023-10-11T23:53:16.454Z,88.59
2023-10-11T23:55:41.446Z,88.62
2023-10-11T23:58:13.328Z,88.74
